Time;durP1;ratioP1;P1;durP2;ratioP2;P2;SDS_P1;SDS_P2;PMS_P1;PMS_P2;Temp;Humidity;BMP_temperature;BMP_pressure;BME280_temperature;BME280_humidity;BME280_pressure;Samples;Min_cycle;Max_cycle;Signal;HPM_P1;HPM_P2
2023/09/28 00:08:33;;;;;;;7.47;3.83;;;20.20;1.00;;;;;;20813261;28;20366;-41
2023/09/28 00:18:33;;;;;;;7.47;3.97;;;20.10;1.00;;;;;;20813531;28;20044;-41
2023/09/28 00:28:34;;;;;;;4.78;3.17;;;19.90;1.00;;;;;;20812205;28;20467;-41
2023/09/28 00:38:34;;;;;;;7.72;4.57;;;19.70;1.00;;;;;;20796627;28;20048;-41
2023/09/28 00:48:45;;;;;;;7.47;4.93;;;19.70;1.00;;;;;;20810208;28;20045;-41
2023/09/28 00:58:50;;;;;;;7.68;5.85;;;19.60;1.00;;;;;;20817062;28;22018;-40
2023/09/28 01:08:52;;;;;;;9.77;6.45;;;19.60;1.00;;;;;;20817191;28;21356;-41
2023/09/28 01:18:53;;;;;;;9.25;6.97;;;19.50;1.00;;;;;;20809742;28;20053;-41
2023/09/28 01:28:54;;;;;;;12.13;7.10;;;19.10;1.00;;;;;;20813601;28;20095;-41
2023/09/28 01:39:07;;;;;;;12.65;7.53;;;18.90;1.00;;;;;;20810839;28;20048;-41
2023/09/28 01:49:08;;;;;;;11.07;6.75;;;18.80;1.00;;;;;;20803948;28;20179;-41
2023/09/28 01:59:08;;;;;;;10.57;6.20;;;18.90;1.00;;;;;;20813528;28;20068;-40
2023/09/28 02:09:11;;;;;;;9.10;5.95;;;19.00;1.00;;;;;;20803952;28;20146;-41
2023/09/28 02:19:12;;;;;;;7.78;5.32;;;18.70;1.00;;;;;;20799897;28;20460;-41
2023/09/28 02:29:12;;;;;;;12.02;6.80;;;18.70;1.00;;;;;;20817318;28;20044;-41
2023/09/28 02:39:14;;;;;;;8.90;6.40;;;18.60;1.00;;;;;;20811217;28;20055;-41
2023/09/28 02:49:15;;;;;;;8.77;5.95;;;18.40;1.00;;;;;;20816580;28;20468;-41
2023/09/28 02:59:21;;;;;;;8.50;5.45;;;18.30;1.00;;;;;;20815350;28;20037;-41
2023/09/28 03:09:22;;;;;;;9.23;5.67;;;18.10;1.00;;;;;;20821450;28;20052;-41
2023/09/28 03:19:23;;;;;;;8.70;4.57;;;17.90;1.00;;;;;;20827197;28;20040;-41
2023/09/28 03:29:23;;;;;;;7.88;3.55;;;18.00;1.00;;;;;;20831753;28;20057;-41
2023/09/28 03:39:24;;;;;;;8.63;2.95;;;18.10;1.00;;;;;;20819929;28;20154;-40
2023/09/28 03:49:24;;;;;;;6.15;2.38;;;18.20;1.00;;;;;;20824232;28;20512;-41
2023/09/28 03:59:25;;;;;;;10.65;2.17;;;18.00;1.00;;;;;;20824378;28;20037;-40
2023/09/28 04:09:26;;;;;;;16.77;3.20;;;18.10;1.00;;;;;;20808867;28;20047;-40
2023/09/28 04:19:26;;;;;;;11.45;2.78;;;18.10;1.00;;;;;;20800263;28;20033;-41
2023/09/28 04:29:27;;;;;;;15.60;2.70;;;17.90;1.00;;;;;;20808666;28;20045;-41
2023/09/28 04:39:27;;;;;;;14.38;2.67;;;17.60;1.00;;;;;;20811966;28;20076;-41
2023/09/28 04:49:28;;;;;;;19.40;3.80;;;17.70;1.00;;;;;;20810556;28;20049;-40
2023/09/28 04:59:29;;;;;;;14.82;2.70;;;17.70;1.00;;;;;;20807031;28;20049;-41
2023/09/28 05:09:29;;;;;;;19.40;3.77;;;17.60;1.00;;;;;;20810969;28;20065;-42
2023/09/28 05:19:30;;;;;;;14.43;2.80;;;17.60;1.00;;;;;;20806809;28;20037;-41
2023/09/28 05:29:31;;;;;;;11.27;2.95;;;17.60;1.00;;;;;;20818950;28;21060;-41
2023/09/28 05:39:31;;;;;;;15.13;2.87;;;17.50;1.00;;;;;;20814109;28;20064;-41
2023/09/28 05:49:32;;;;;;;15.65;3.63;;;17.30;1.00;;;;;;20813911;28;20297;-41
2023/09/28 05:59:33;;;;;;;21.48;3.63;;;17.20;1.00;;;;;;20822725;28;20044;-41
2023/09/28 06:09:33;;;;;;;18.30;3.55;;;17.10;1.00;;;;;;20841038;28;20050;-41
2023/09/28 06:19:34;;;;;;;16.88;3.00;;;17.00;1.00;;;;;;20841934;28;20033;-41
2023/09/28 06:29:34;;;;;;;25.00;3.63;;;17.00;1.00;;;;;;20842273;28;20111;-41
2023/09/28 06:39:35;;;;;;;21.20;3.90;;;16.90;1.00;;;;;;20841286;28;20095;-41
2023/09/28 06:49:36;;;;;;;18.55;3.03;;;16.80;1.00;;;;;;20839583;28;20045;-40
2023/09/28 06:59:37;;;;;;;22.50;3.70;;;16.90;1.00;;;;;;20840757;28;20091;-40
2023/09/28 07:09:37;;;;;;;22.67;4.30;;;17.10;1.00;;;;;;20840094;28;20068;-41
2023/09/28 07:19:38;;;;;;;18.13;3.37;;;17.30;1.00;;;;;;20839694;28;20086;-41
2023/09/28 07:29:38;;;;;;;20.70;3.30;;;17.40;1.00;;;;;;20836334;28;20053;-41
2023/09/28 07:39:39;;;;;;;17.77;4.15;;;17.50;1.00;;;;;;20835954;28;20041;-41
2023/09/28 07:49:41;;;;;;;24.00;4.30;;;17.60;1.00;;;;;;20834412;28;20123;-41
2023/09/28 07:59:43;;;;;;;17.17;3.28;;;17.60;1.00;;;;;;20835772;28;20044;-40
2023/09/28 08:09:43;;;;;;;18.63;2.95;;;17.70;1.00;;;;;;20834954;28;20056;-41
2023/09/28 08:19:45;;;;;;;21.40;3.88;;;17.90;1.00;;;;;;20833995;28;20045;-41
2023/09/28 08:29:46;;;;;;;21.60;3.65;;;18.00;1.00;;;;;;20832642;28;20099;-41
2023/09/28 08:39:46;;;;;;;21.05;4.00;;;18.10;1.00;;;;;;20833247;28;20508;-41
2023/09/28 08:49:49;;;;;;;16.93;3.10;;;18.40;1.00;;;;;;20832722;28;20045;-41
2023/09/28 08:59:52;;;;;;;16.23;3.30;;;18.50;1.00;;;;;;20832268;28;20037;-41
2023/09/28 09:09:57;;;;;;;15.25;2.97;;;18.70;1.00;;;;;;20828979;28;20393;-41
2023/09/28 09:19:58;;;;;;;20.75;3.72;;;18.90;1.00;;;;;;20830405;28;20049;-41
2023/09/28 09:30:07;;;;;;;19.25;3.83;;;19.00;1.00;;;;;;20828072;28;20453;-41
2023/09/28 09:40:10;;;;;;;18.52;3.35;;;19.00;1.00;;;;;;20840326;28;20044;-41
2023/09/28 09:50:13;;;;;;;19.70;3.50;;;19.10;1.00;;;;;;20846716;28;20064;-41
2023/09/28 10:00:18;;;;;;;17.90;3.15;;;19.20;1.00;;;;;;20845864;28;20033;-41
2023/09/28 10:10:20;;;;;;;16.55;3.53;;;19.30;1.00;;;;;;20846394;28;20049;-41
2023/09/28 10:20:20;;;;;;;18.60;3.35;;;19.40;1.00;;;;;;20845281;28;20037;-41
2023/09/28 10:30:22;;;;;;;18.40;3.30;;;19.40;1.00;;;;;;20843346;28;20037;-41
2023/09/28 10:40:24;;;;;;;17.60;3.47;;;19.40;1.00;;;;;;20841773;28;20052;-41
2023/09/28 10:50:25;;;;;;;16.60;3.13;;;19.30;1.00;;;;;;20842080;28;20995;-41
2023/09/28 11:00:25;;;;;;;20.37;3.03;;;19.20;1.00;;;;;;20843150;28;20501;-41
2023/09/28 11:10:26;;;;;;;16.08;2.70;;;19.30;1.00;;;;;;20820352;28;20470;-41
2023/09/28 11:20:26;;;;;;;19.83;3.30;;;19.40;1.00;;;;;;20840893;28;20116;-41
2023/09/28 11:30:27;;;;;;;16.13;3.08;;;19.40;1.00;;;;;;20839101;28;20044;-42
2023/09/28 11:40:28;;;;;;;18.98;3.22;;;19.40;1.00;;;;;;20838313;28;20069;-41
2023/09/28 11:50:30;;;;;;;12.75;2.75;;;19.40;1.00;;;;;;20837307;28;20045;-41
2023/09/28 12:00:30;;;;;;;19.67;3.05;;;19.60;1.00;;;;;;20823005;28;20083;-41
2023/09/28 12:10:32;;;;;;;20.27;3.40;;;19.70;1.00;;;;;;20838376;28;20422;-42
2023/09/28 12:20:32;;;;;;;20.30;2.78;;;19.80;1.00;;;;;;20836976;28;20044;-41
2023/09/28 12:30:40;;;;;;;17.48;3.05;;;20.20;1.00;;;;;;20821840;27;20621;-42
2023/09/28 12:40:42;;;;;;;12.73;2.65;;;20.10;1.00;;;;;;20816596;28;20468;-42
2023/09/28 12:50:44;;;;;;;13.43;3.20;;;20.20;1.00;;;;;;20816663;28;20033;-42
2023/09/28 13:00:44;;;;;;;16.35;2.63;;;20.20;1.00;;;;;;20754819;28;20497;-42
2023/09/28 13:10:45;;;;;;;14.77;3.17;;;20.10;1.00;;;;;;20727630;28;20452;-42
2023/09/28 13:20:46;;;;;;;12.65;2.47;;;19.90;1.00;;;;;;20728484;28;20116;-42
2023/09/28 13:30:47;;;;;;;12.57;2.63;;;19.90;1.00;;;;;;20730489;28;20034;-42
2023/09/28 13:40:47;;;;;;;13.93;2.90;;;19.70;1.00;;;;;;20683441;28;20058;-42
2023/09/28 13:50:48;;;;;;;11.40;2.20;;;19.60;1.00;;;;;;20676799;28;20060;-42
2023/09/28 14:00:50;;;;;;;16.35;2.67;;;19.80;1.00;;;;;;20678667;28;20073;-42
2023/09/28 14:10:51;;;;;;;11.23;2.90;;;19.90;1.00;;;;;;20674197;28;20035;-43
2023/09/28 14:20:52;;;;;;;12.57;2.72;;;19.90;1.00;;;;;;20673366;28;20034;-43
2023/09/28 14:30:54;;;;;;;11.05;2.05;;;19.80;1.00;;;;;;20672529;28;20371;-42
2023/09/28 14:40:55;;;;;;;9.07;2.55;;;19.80;1.00;;;;;;20670151;28;20042;-42
2023/09/28 14:50:55;;;;;;;9.98;2.70;;;19.80;1.00;;;;;;20667846;28;20522;-42
2023/09/28 15:00:56;;;;;;;9.80;2.72;;;19.70;1.00;;;;;;20669446;28;20057;-42
2023/09/28 15:10:56;;;;;;;7.70;2.00;;;19.80;1.00;;;;;;20671691;28;20052;-42
2023/09/28 15:20:57;;;;;;;6.50;1.50;;;19.80;1.00;;;;;;20671185;28;20040;-42
2023/09/28 15:30:58;;;;;;;7.28;1.75;;;19.70;1.00;;;;;;20668654;28;20039;-42
2023/09/28 15:40:58;;;;;;;10.63;1.80;;;19.50;1.00;;;;;;20664243;28;20478;-42
2023/09/28 15:50:59;;;;;;;7.15;1.60;;;19.70;1.00;;;;;;20660900;28;20342;-42
2023/09/28 16:01:00;;;;;;;7.13;1.50;;;19.60;1.00;;;;;;20662349;28;20034;-42
2023/09/28 16:11:00;;;;;;;7.47;1.77;;;19.40;1.00;;;;;;20658768;28;20452;-42
2023/09/28 16:21:01;;;;;;;9.13;1.67;;;19.10;1.00;;;;;;20642003;28;20132;-42
2023/09/28 16:31:02;;;;;;;9.02;1.95;;;19.00;1.00;;;;;;20660593;28;20079;-42
2023/09/28 16:41:02;;;;;;;5.85;1.88;;;18.80;1.00;;;;;;20662932;28;20049;-42
2023/09/28 16:51:03;;;;;;;6.05;1.80;;;18.60;1.00;;;;;;20633643;28;20041;-42
2023/09/28 17:01:04;;;;;;;8.95;1.95;;;18.40;1.00;;;;;;20631207;28;20426;-43
2023/09/28 17:11:06;;;;;;;5.43;1.90;;;18.30;1.00;;;;;;20628483;28;20072;-42
2023/09/28 17:21:06;;;;;;;9.00;1.77;;;18.10;1.00;;;;;;20661131;28;20060;-42
2023/09/28 17:31:07;;;;;;;6.90;2.20;;;17.90;1.00;;;;;;20628390;28;20030;-42
2023/09/28 17:41:08;;;;;;;9.80;2.45;;;17.60;1.00;;;;;;20661985;28;20147;-42
2023/09/28 17:51:10;;;;;;;5.53;1.63;;;17.30;1.00;;;;;;20720666;28;20452;-42
2023/09/28 18:01:11;;;;;;;7.85;2.10;;;17.00;1.00;;;;;;20754339;28;20084;-42
2023/09/28 18:11:11;;;;;;;7.03;2.35;;;16.70;1.00;;;;;;20751273;28;20041;-42
2023/09/28 18:21:12;;;;;;;7.75;2.60;;;16.50;1.00;;;;;;20746215;28;20045;-42
2023/09/28 18:31:12;;;;;;;7.35;2.50;;;16.30;1.00;;;;;;20749841;28;20497;-42
2023/09/28 18:41:21;;;;;;;7.55;2.53;;;16.20;1.00;;;;;;20749020;28;20068;-42
2023/09/28 18:51:22;;;;;;;7.80;2.25;;;16.20;1.00;;;;;;20743550;28;20036;-42
2023/09/28 19:01:23;;;;;;;10.50;3.10;;;16.30;1.00;;;;;;20750422;28;20055;-42
2023/09/28 19:11:23;;;;;;;7.78;2.28;;;16.40;1.00;;;;;;20767602;28;20037;-42
2023/09/28 19:21:24;;;;;;;5.38;2.75;;;16.50;1.00;;;;;;20745301;28;20079;-42
2023/09/28 19:31:30;;;;;;;8.93;2.97;;;16.50;1.00;;;;;;20748926;28;20049;-42
2023/09/28 19:41:32;;;;;;;8.07;2.67;;;16.60;1.00;;;;;;20748561;28;20123;-42
2023/09/28 19:51:33;;;;;;;7.13;2.47;;;16.60;1.00;;;;;;20741670;28;20124;-42
2023/09/28 20:01:33;;;;;;;11.60;3.22;;;16.60;1.00;;;;;;20752583;28;20486;-42
2023/09/28 20:11:37;;;;;;;11.23;2.83;;;16.70;1.00;;;;;;20749481;28;20045;-42
2023/09/28 20:21:37;;;;;;;9.27;3.17;;;16.80;1.00;;;;;;20747805;28;20033;-42
2023/09/28 20:31:38;;;;;;;14.15;2.80;;;17.00;1.00;;;;;;20735102;28;20052;-42
2023/09/28 20:41:38;;;;;;;7.93;2.45;;;17.20;1.00;;;;;;20735823;28;20043;-42
2023/09/28 20:51:39;;;;;;;10.50;2.83;;;17.30;1.00;;;;;;20749997;28;20500;-42
2023/09/28 21:01:40;;;;;;;9.13;2.58;;;17.40;1.00;;;;;;20771345;28;20033;-42
2023/09/28 21:11:40;;;;;;;10.98;3.15;;;17.40;1.00;;;;;;20739761;28;20068;-42
2023/09/28 21:21:41;;;;;;;12.35;3.00;;;17.50;1.00;;;;;;20756779;28;20049;-42
2023/09/28 21:31:41;;;;;;;14.18;4.72;;;17.30;1.00;;;;;;20759476;28;20113;-42
2023/09/28 21:41:42;;;;;;;14.60;3.80;;;17.40;1.00;;;;;;20761079;28;20204;-42
2023/09/28 21:51:43;;;;;;;13.50;3.57;;;17.20;1.00;;;;;;20761161;28;20037;-42
2023/09/28 22:01:43;;;;;;;12.07;3.90;;;17.10;1.00;;;;;;20752265;28;20516;-42
2023/09/28 22:11:44;;;;;;;14.32;3.35;;;17.00;1.00;;;;;;20756424;28;20037;-42
2023/09/28 22:21:44;;;;;;;10.35;3.70;;;16.80;1.00;;;;;;20755140;28;20466;-42
2023/09/28 22:31:45;;;;;;;12.90;4.00;;;16.80;1.00;;;;;;20757762;28;20033;-42
2023/09/28 22:41:45;;;;;;;12.27;3.00;;;16.90;1.00;;;;;;20734809;28;20815;-42
2023/09/28 22:51:47;;;;;;;12.50;3.28;;;16.90;1.00;;;;;;20735622;28;20034;-42
2023/09/28 23:01:47;;;;;;;13.18;3.40;;;17.10;1.00;;;;;;20739930;28;20637;-42
2023/09/28 23:11:48;;;;;;;12.30;3.30;;;17.00;1.00;;;;;;20747016;28;20488;-42
2023/09/28 23:21:48;;;;;;;10.60;2.85;;;17.10;1.00;;;;;;20738280;28;20045;-42
2023/09/28 23:31:54;;;;;;;11.93;2.72;;;17.20;1.00;;;;;;20753471;28;20409;-42
2023/09/28 23:41:55;;;;;;;12.55;3.00;;;17.20;1.00;;;;;;20748416;28;20095;-42
2023/09/28 23:51:55;;;;;;;12.60;3.13;;;17.30;1.00;;;;;;20742305;28;20088;-42
